Buffalo, NY (14212)

5:12 PM EDT on October 20, 2014 (GMT -0400)
Winchester | Change Station
CLOSE
Current Station
Personal Weather Station
Location: West Seneca, NY
Elevation: 594 ft
Nearby Weather Stations

Elev 594 ft 42.86 °N, 78.79 °W | Updated 3 minutes ago

Mostly Cloudy
Mostly Cloudy
57.0 °F
Feels Like 57.0 °F
N
4.7
Wind Variable Wind from West

Today
High -- | Low -- °F
--% Chance of Precip.
Yesterday
High -- | Low -- °F
Precip. -- in
7:34 AM 6:24 PM
Waning Crescent, 9% visible
Pressure 29.82 in
Visibility 10.0 miles
Clouds Few 3400 ft
Mostly Cloudy 6000 ft
Overcast 13000 ft
Dew Point 45 °F
Humidity 64%
Rainfall 0.00 in
Snow Depth Not available.
UV 0 out of 12
Pollen .30 out of 12
Ozone Good
PM2.5 Good
Flu Activity Sporadic
METAR KBUF 202054Z 21010KT 10SM FEW034 BKN060 OVC130 13/06 A2981 RMK AO2 SLP096 OCNL BINOVC T01330056 56011

More Conditions Fewer Conditions

Pressure 29.82 in
Visibility 10.0 miles
Clouds Few 3400 ft
Mostly Cloudy 6000 ft
Overcast 13000 ft
Dew Point 45 °F
Humidity 64%
Rainfall 0.00 in
Snow Depth Not available.
UV 0 out of 12
Pollen .30 out of 12
Ozone Good
PM2.5 Good
Flu Activity Sporadic
METAR KBUF 202054Z 21010KT 10SM FEW034 BKN060 OVC130 13/06 A2981 RMK AO2 SLP096 OCNL BINOVC T01330056 56011

More Conditions Fewer Conditions

10-Day Weather Forecast

Almanac

Astronomy

Oct. 20, 2014 Rise Set
Actual Time 7:34 AM EDT 6:24 PM EDT
Civil Twilight 7:05 AM EDT 6:53 PM EDT
Nautical Twilight 6:32 AM EDT 7:26 PM EDT
Astronomical Twilight 6:00 AM EDT 7:59 PM EDT
Moon 4:16 AM EDT 4:50 PM EDT
Length of Visible Light 11h 47m
Length of Day
10h 50m
Waning Crescent, 9% of the Moon is Illuminated
Today
Waning Crescent
Oct 23
New
Oct 30
First Quarter
Nov 6
Full
Nov 14
Last Quarter

Today's Extremes

State Highs State Lows

Community

WunderPhotos

Upload Photos

1,763,510 photos uploaded!

WunderBlogs® & News

By Dr. Jeff Masters
Director of Meteorology, Weather Underground
By Kari Strenfel
Meteorologist, Weather Underground
By Christopher C. Burt
Weather Historian, Weather Underground
October 20, 2014
October 20, 2014
October 20, 2014

Nearby

Air Quality

  Air Quality AQ Index Pollutant
Yesterday Good
OZONE
Yesterday Good
PM2.5
Current Good
PM2.5
Current Good
OZONE
Monday Good
PM2.5
Tuesday Good
PM2.5

Snow Depth

Station Depth Elevation
No new snow has been reported.

Earthquake Activity

City Distance Mag. Time & Date
No recent earthquake activity has been reported nearby.
Minimum magnitude displayed is 2.5.

Coastal Water Temperatures

Place Temperature
Buffalo, NY 57.9 °F

Nearby Weather Stations